Time;durP1;ratioP1;P1;durP2;ratioP2;P2;SDS_P1;SDS_P2;PMS_P1;PMS_P2;Temp;Humidity;BMP_temperature;BMP_pressure;BME280_temperature;BME280_humidity;BME280_pressure;Samples;Min_cycle;Max_cycle;Signal;HPM_P1;HPM_P2
2023/10/31 00:00:54;;;;;;;1.20;1.10;;;;;;;;;;5910285;28;20413;-68
2023/10/31 00:03:45;;;;;;;2.25;1.25;;;;;;;;;;5909621;28;20131;-68
2023/10/31 00:06:35;;;;;;;11.85;2.17;;;;;;;;;;5909727;28;20049;-68
2023/10/31 00:09:26;;;;;;;1.15;1.05;;;;;;;;;;5909603;28;20044;-68
2023/10/31 00:12:19;;;;;;;3.35;1.65;;;;;;;;;;5908222;28;20048;-68
2023/10/31 00:15:10;;;;;;;1.73;1.63;;;;;;;;;;5909581;28;20417;-68
2023/10/31 00:18:00;;;;;;;3.28;1.75;;;;;;;;;;5908357;28;20418;-69
2023/10/31 00:20:51;;;;;;;2.78;1.42;;;;;;;;;;5909983;28;20124;-68
2023/10/31 00:23:44;;;;;;;3.00;2.22;;;;;;;;;;5909448;28;20045;-68
2023/10/31 00:26:35;;;;;;;10.48;1.80;;;;;;;;;;5909410;28;20067;-68
2023/10/31 00:29:25;;;;;;;3.13;1.88;;;;;;;;;;5909221;28;20048;-68
2023/10/31 00:32:16;;;;;;;2.25;1.80;;;;;;;;;;5909274;28;20053;-68
2023/10/31 00:35:07;;;;;;;1.15;0.93;;;;;;;;;;5909185;28;20063;-69
2023/10/31 00:37:59;;;;;;;2.35;1.58;;;;;;;;;;5909571;28;20055;-69
2023/10/31 00:40:49;;;;;;;2.60;1.60;;;;;;;;;;5909402;28;20091;-69
2023/10/31 00:43:40;;;;;;;2.22;1.45;;;;;;;;;;5909094;28;20058;-69
2023/10/31 00:46:31;;;;;;;2.83;1.17;;;;;;;;;;5909206;28;20410;-69
2023/10/31 00:49:21;;;;;;;8.43;1.77;;;;;;;;;;5909116;28;20505;-69
2023/10/31 00:52:12;;;;;;;2.67;1.30;;;;;;;;;;5909265;28;20060;-69
2023/10/31 00:55:04;;;;;;;3.75;1.08;;;;;;;;;;5909028;28;20040;-69
2023/10/31 00:57:54;;;;;;;0.98;0.60;;;;;;;;;;5909651;28;20056;-69
2023/10/31 01:00:45;;;;;;;1.25;0.98;;;;;;;;;;5908802;28;20052;-68
2023/10/31 01:03:36;;;;;;;2.90;1.02;;;;;;;;;;5907670;28;20049;-69
2023/10/31 01:06:27;;;;;;;1.42;1.00;;;;;;;;;;5909062;28;20170;-69
2023/10/31 01:09:17;;;;;;;1.60;1.33;;;;;;;;;;5911455;28;20071;-69
2023/10/31 01:12:10;;;;;;;4.35;0.88;;;;;;;;;;5913155;28;20063;-69
2023/10/31 01:15:00;;;;;;;0.98;0.75;;;;;;;;;;5913386;28;20052;-69
2023/10/31 01:17:51;;;;;;;1.67;1.25;;;;;;;;;;5913348;28;20063;-69
2023/10/31 01:20:42;;;;;;;2.78;0.90;;;;;;;;;;5913013;28;20126;-69
2023/10/31 01:23:33;;;;;;;3.25;1.42;;;;;;;;;;5913091;28;20049;-69
2023/10/31 01:26:24;;;;;;;2.05;0.88;;;;;;;;;;5912830;28;20048;-69
2023/10/31 01:29:15;;;;;;;3.35;1.63;;;;;;;;;;5912808;28;20048;-69
2023/10/31 01:32:06;;;;;;;3.13;0.90;;;;;;;;;;5913006;28;20063;-69
2023/10/31 01:35:07;;;;;;;1.65;0.73;;;;;;;;;;5912864;28;20583;-69
2023/10/31 01:37:58;;;;;;;4.55;0.77;;;;;;;;;;5913204;28;20413;-69
2023/10/31 01:40:50;;;;;;;6.35;1.40;;;;;;;;;;5912521;28;20044;-69
2023/10/31 01:43:41;;;;;;;2.13;1.23;;;;;;;;;;5912376;28;20127;-69
2023/10/31 01:46:32;;;;;;;0.63;0.60;;;;;;;;;;5912401;28;20052;-69
2023/10/31 01:49:23;;;;;;;2.90;1.10;;;;;;;;;;5912236;28;20044;-69
2023/10/31 01:52:14;;;;;;;1.92;1.30;;;;;;;;;;5910899;28;20056;-69
2023/10/31 01:55:05;;;;;;;2.83;0.93;;;;;;;;;;5910819;28;20082;-70
2023/10/31 01:57:56;;;;;;;1.08;0.75;;;;;;;;;;5912435;28;20056;-68
2023/10/31 02:00:47;;;;;;;1.65;1.10;;;;;;;;;;5912119;28;20044;-68
2023/10/31 02:03:38;;;;;;;3.88;0.98;;;;;;;;;;5911924;28;20044;-69
2023/10/31 02:06:30;;;;;;;4.40;1.00;;;;;;;;;;5911861;28;20056;-69
2023/10/31 02:09:24;;;;;;;11.32;1.40;;;;;;;;;;5911856;28;20123;-69
2023/10/31 02:12:34;;;;;;;3.47;0.90;;;;;;;;;;5911578;28;20083;-69
2023/10/31 02:15:25;;;;;;;0.80;0.77;;;;;;;;;;5911802;28;20040;-69
2023/10/31 02:18:16;;;;;;;7.00;1.42;;;;;;;;;;5911541;28;20048;-69
2023/10/31 02:21:07;;;;;;;1.02;0.90;;;;;;;;;;5910165;28;20048;-69
2023/10/31 02:24:00;;;;;;;1.38;0.90;;;;;;;;;;5910534;28;20048;-69
2023/10/31 02:26:51;;;;;;;3.42;1.52;;;;;;;;;;5910317;28;20044;-69
2023/10/31 02:29:42;;;;;;;3.47;1.30;;;;;;;;;;5911391;28;20185;-69
2023/10/31 02:32:33;;;;;;;2.20;0.73;;;;;;;;;;5911485;28;20047;-69
2023/10/31 02:35:24;;;;;;;0.90;0.82;;;;;;;;;;5911140;28;20121;-69
2023/10/31 02:38:15;;;;;;;0.47;0.47;;;;;;;;;;5911069;28;20048;-69
2023/10/31 02:41:05;;;;;;;1.20;0.90;;;;;;;;;;5911185;28;20053;-69
2023/10/31 02:43:57;;;;;;;2.42;0.70;;;;;;;;;;5911221;28;20049;-69
2023/10/31 02:46:48;;;;;;;5.80;1.05;;;;;;;;;;5911085;28;20076;-69
2023/10/31 02:49:39;;;;;;;1.10;0.70;;;;;;;;;;5910931;28;20052;-69
2023/10/31 02:52:29;;;;;;;2.95;1.10;;;;;;;;;;5910793;28;20044;-69
2023/10/31 02:55:20;;;;;;;0.80;0.65;;;;;;;;;;5909755;28;26308;-69
2023/10/31 02:58:11;;;;;;;0.95;0.80;;;;;;;;;;5910843;28;20498;-69
2023/10/31 03:01:02;;;;;;;0.70;0.70;;;;;;;;;;5909892;28;20067;-70
2023/10/31 03:03:53;;;;;;;3.70;0.90;;;;;;;;;;5911258;28;20052;-69
2023/10/31 03:06:44;;;;;;;1.25;1.05;;;;;;;;;;5910756;28;20044;-69
2023/10/31 03:09:34;;;;;;;0.90;0.82;;;;;;;;;;5910704;28;20044;-69
2023/10/31 03:12:25;;;;;;;5.47;1.25;;;;;;;;;;5910508;28;20688;-69
2023/10/31 03:15:16;;;;;;;1.55;0.80;;;;;;;;;;5910455;28;20055;-69
2023/10/31 03:18:07;;;;;;;1.90;1.33;;;;;;;;;;5910364;28;20048;-69
2023/10/31 03:20:58;;;;;;;2.92;1.42;;;;;;;;;;5910870;28;20054;-69
2023/10/31 03:23:50;;;;;;;5.32;1.08;;;;;;;;;;5910317;28;20460;-69
2023/10/31 03:26:41;;;;;;;2.13;0.95;;;;;;;;;;5910299;28;20525;-69
2023/10/31 03:29:31;;;;;;;4.55;1.27;;;;;;;;;;5909067;28;20059;-69
2023/10/31 03:32:22;;;;;;;1.25;0.90;;;;;;;;;;5909740;28;20044;-69
2023/10/31 03:35:13;;;;;;;3.08;1.42;;;;;;;;;;5910162;28;20498;-69
2023/10/31 03:38:04;;;;;;;1.65;0.68;;;;;;;;;;5910317;28;20494;-69
2023/10/31 03:40:54;;;;;;;3.05;0.68;;;;;;;;;;5910905;28;20056;-69
2023/10/31 03:43:45;;;;;;;0.43;0.43;;;;;;;;;;5910029;28;20048;-69
2023/10/31 03:46:36;;;;;;;4.47;0.80;;;;;;;;;;5910053;28;20054;-69
2023/10/31 03:49:27;;;;;;;2.72;0.93;;;;;;;;;;5910128;28;20104;-69
2023/10/31 03:52:19;;;;;;;0.93;0.80;;;;;;;;;;5910220;28;20049;-69
2023/10/31 03:55:10;;;;;;;1.42;0.90;;;;;;;;;;5910142;28;20049;-69
2023/10/31 03:58:01;;;;;;;3.70;1.27;;;;;;;;;;5910274;28;20071;-69
2023/10/31 04:00:52;;;;;;;4.57;1.38;;;;;;;;;;5910798;28;20430;-69
2023/10/31 04:03:43;;;;;;;0.93;0.70;;;;;;;;;;5910208;28;20413;-69
2023/10/31 04:06:34;;;;;;;4.28;1.55;;;;;;;;;;5910311;28;20040;-69
2023/10/31 04:09:25;;;;;;;0.45;0.45;;;;;;;;;;5909994;28;20811;-69
2023/10/31 04:12:17;;;;;;;2.55;0.88;;;;;;;;;;5909794;28;20453;-69
2023/10/31 04:15:09;;;;;;;1.30;0.73;;;;;;;;;;5909843;28;20055;-69
2023/10/31 04:17:59;;;;;;;3.65;1.27;;;;;;;;;;5910270;28;20059;-69
2023/10/31 04:20:50;;;;;;;1.27;0.47;;;;;;;;;;5910149;28;20040;-69
2023/10/31 04:23:41;;;;;;;39.15;1.20;;;;;;;;;;5910124;28;20051;-70
2023/10/31 04:26:32;;;;;;;1.65;0.55;;;;;;;;;;5909794;28;20044;-69
2023/10/31 04:29:23;;;;;;;0.60;0.57;;;;;;;;;;5909677;28;20045;-69
2023/10/31 04:32:13;;;;;;;1.65;0.85;;;;;;;;;;5909730;28;20056;-69
2023/10/31 04:35:04;;;;;;;1.38;0.70;;;;;;;;;;5909698;28;20052;-69
2023/10/31 04:37:56;;;;;;;3.30;1.00;;;;;;;;;;5910139;28;20510;-69
2023/10/31 04:40:47;;;;;;;0.47;0.38;;;;;;;;;;5909671;28;20074;-69
2023/10/31 04:43:41;;;;;;;3.67;0.90;;;;;;;;;;5910994;28;20041;-69
2023/10/31 04:46:32;;;;;;;6.20;1.00;;;;;;;;;;5914202;28;20040;-69
2023/10/31 04:49:23;;;;;;;2.55;0.85;;;;;;;;;;5913928;28;20051;-70
2023/10/31 04:52:13;;;;;;;0.77;0.75;;;;;;;;;;5912762;28;20044;-69
2023/10/31 04:55:05;;;;;;;2.80;1.00;;;;;;;;;;5913841;28;20052;-69
2023/10/31 04:57:56;;;;;;;0.60;0.60;;;;;;;;;;5914309;28;20056;-69
2023/10/31 05:00:47;;;;;;;0.73;0.63;;;;;;;;;;5913868;28;20044;-69
2023/10/31 05:03:38;;;;;;;1.92;0.90;;;;;;;;;;5913633;28;20045;-69
2023/10/31 05:06:29;;;;;;;1.13;0.60;;;;;;;;;;5913469;28;20132;-70
2023/10/31 05:09:20;;;;;;;0.65;0.60;;;;;;;;;;5913660;28;20049;-69
2023/10/31 05:12:11;;;;;;;2.70;1.02;;;;;;;;;;5913720;28;20788;-70
2023/10/31 05:15:02;;;;;;;17.08;0.98;;;;;;;;;;5913352;28;20060;-69
2023/10/31 05:17:53;;;;;;;0.88;0.80;;;;;;;;;;5913893;28;20045;-69
2023/10/31 05:20:44;;;;;;;0.63;0.50;;;;;;;;;;5912114;28;20052;-70
2023/10/31 05:23:35;;;;;;;0.95;0.63;;;;;;;;;;5913112;28;20047;-70
2023/10/31 05:26:27;;;;;;;1.70;1.00;;;;;;;;;;5913067;28;20044;-70
2023/10/31 05:29:18;;;;;;;0.22;0.22;;;;;;;;;;5913359;28;20489;-70
2023/10/31 05:32:09;;;;;;;1.02;0.50;;;;;;;;;;5913228;28;20041;-70
2023/10/31 05:35:00;;;;;;;0.40;0.40;;;;;;;;;;5913480;28;20075;-70
2023/10/31 05:37:51;;;;;;;0.73;0.25;;;;;;;;;;5913215;28;20123;-70
2023/10/31 05:40:41;;;;;;;1.05;0.50;;;;;;;;;;5913047;28;20119;-69
2023/10/31 05:43:33;;;;;;;2.33;0.73;;;;;;;;;;5911595;28;20048;-69
2023/10/31 05:46:24;;;;;;;1.55;0.77;;;;;;;;;;5912708;28;20055;-70
2023/10/31 05:49:16;;;;;;;1.58;0.82;;;;;;;;;;5912708;28;20048;-70
2023/10/31 05:52:06;;;;;;;1.92;0.65;;;;;;;;;;5912698;28;20048;-70
2023/10/31 05:54:57;;;;;;;1.25;0.80;;;;;;;;;;5912533;28;20433;-70
2023/10/31 05:57:48;;;;;;;3.63;1.27;;;;;;;;;;5912352;28;20059;-70
2023/10/31 06:00:39;;;;;;;1.17;0.98;;;;;;;;;;5912598;28;20052;-70
2023/10/31 06:03:30;;;;;;;3.90;1.30;;;;;;;;;;5912395;28;20044;-70
2023/10/31 06:06:20;;;;;;;0.55;0.45;;;;;;;;;;5912274;28;20210;-70
2023/10/31 06:09:11;;;;;;;1.60;0.80;;;;;;;;;;5912246;28;20052;-71
2023/10/31 06:12:02;;;;;;;1.55;0.75;;;;;;;;;;5912253;28;20395;-71
2023/10/31 06:14:53;;;;;;;2.35;0.82;;;;;;;;;;5912540;28;20414;-70
2023/10/31 06:17:44;;;;;;;0.20;0.20;;;;;;;;;;5912108;28;20045;-71
2023/10/31 06:20:35;;;;;;;0.45;0.45;;;;;;;;;;5912127;28;20048;-70
2023/10/31 06:23:26;;;;;;;1.67;0.93;;;;;;;;;;5911956;28;20060;-70
2023/10/31 06:26:19;;;;;;;0.75;0.52;;;;;;;;;;5910812;28;20052;-70
2023/10/31 06:29:10;;;;;;;2.55;1.08;;;;;;;;;;5911770;28;20049;-70
2023/10/31 06:32:21;;;;;;;7.90;1.45;;;;;;;;;;5910610;28;20130;-70
2023/10/31 06:35:11;;;;;;;0.63;0.63;;;;;;;;;;5911601;28;20524;-70
2023/10/31 06:38:02;;;;;;;3.50;0.75;;;;;;;;;;5911623;28;20055;-70
2023/10/31 06:40:54;;;;;;;2.42;1.02;;;;;;;;;;5912126;28;20049;-70
2023/10/31 06:43:44;;;;;;;1.10;0.70;;;;;;;;;;5911190;28;20044;-71
2023/10/31 06:46:35;;;;;;;4.20;1.45;;;;;;;;;;5911466;28;20520;-70
2023/10/31 06:49:26;;;;;;;1.23;0.45;;;;;;;;;;5911162;28;20053;-72
2023/10/31 06:52:17;;;;;;;0.77;0.77;;;;;;;;;;5911165;28;20052;-71
2023/10/31 06:55:08;;;;;;;0.40;0.30;;;;;;;;;;5910928;28;20045;-71
2023/10/31 06:57:59;;;;;;;1.83;0.43;;;;;;;;;;5911589;28;20426;-68
2023/10/31 07:00:49;;;;;;;0.63;0.20;;;;;;;;;;5911826;28;20037;-70
2023/10/31 07:03:40;;;;;;;3.25;0.77;;;;;;;;;;5910814;28;20047;-72
2023/10/31 07:06:31;;;;;;;0.77;0.63;;;;;;;;;;5910248;28;20051;-71
2023/10/31 07:09:22;;;;;;;2.92;1.17;;;;;;;;;;5910607;28;20051;-71
2023/10/31 07:12:13;;;;;;;1.13;0.75;;;;;;;;;;5910726;28;20048;-71
2023/10/31 07:15:04;;;;;;;7.45;1.27;;;;;;;;;;5910699;28;20052;-70
2023/10/31 07:17:55;;;;;;;0.88;0.50;;;;;;;;;;5911142;28;20060;-71
2023/10/31 07:20:46;;;;;;;3.45;0.73;;;;;;;;;;5910574;28;20056;-72
2023/10/31 07:23:37;;;;;;;6.43;1.05;;;;;;;;;;5910484;28;20055;-70
2023/10/31 07:26:28;;;;;;;1.00;0.82;;;;;;;;;;5910870;28;20059;-72
2023/10/31 07:29:19;;;;;;;13.75;0.82;;;;;;;;;;5910281;28;20083;-71
2023/10/31 07:32:10;;;;;;;0.35;0.20;;;;;;;;;;5910553;28;20131;-71
2023/10/31 07:35:01;;;;;;;0.30;0.30;;;;;;;;;;5910345;28;20099;-71
2023/10/31 07:37:52;;;;;;;0.50;0.35;;;;;;;;;;5910391;28;20146;-71
2023/10/31 07:40:43;;;;;;;1.00;0.50;;;;;;;;;;5910318;28;20040;-70
2023/10/31 07:43:33;;;;;;;1.10;0.50;;;;;;;;;;5909950;28;20131;-69
2023/10/31 07:46:28;;;;;;;1.27;0.43;;;;;;;;;;5910311;28;20048;-70
2023/10/31 07:49:19;;;;;;;0.38;0.30;;;;;;;;;;5910096;28;20052;-70
2023/10/31 07:52:09;;;;;;;0.55;0.50;;;;;;;;;;5910107;28;20052;-70
2023/10/31 07:55:00;;;;;;;1.00;0.60;;;;;;;;;;5910430;28;20052;-70
2023/10/31 07:57:51;;;;;;;2.72;0.88;;;;;;;;;;5910254;28;20410;-70
2023/10/31 08:00:42;;;;;;;3.17;1.00;;;;;;;;;;5909983;28;20044;-71
2023/10/31 08:03:33;;;;;;;3.13;0.47;;;;;;;;;;5909944;28;20071;-71
2023/10/31 08:06:23;;;;;;;0.70;0.70;;;;;;;;;;5910020;28;20415;-70
2023/10/31 08:09:16;;;;;;;0.93;0.55;;;;;;;;;;5909888;28;20048;-70
2023/10/31 08:12:12;;;;;;;2.78;1.10;;;;;;;;;;5910200;28;20079;-71
2023/10/31 08:15:04;;;;;;;3.60;1.02;;;;;;;;;;5910438;28;20426;-70
2023/10/31 08:17:54;;;;;;;6.20;1.20;;;;;;;;;;5913378;28;20414;-70
2023/10/31 08:20:48;;;;;;;7.70;0.80;;;;;;;;;;5915033;28;20046;-70
2023/10/31 08:23:39;;;;;;;0.95;0.57;;;;;;;;;;5915366;28;20417;-71
2023/10/31 08:26:31;;;;;;;2.15;0.93;;;;;;;;;;5914717;28;20055;-71
2023/10/31 08:29:22;;;;;;;1.67;0.73;;;;;;;;;;5914056;28;20055;-70
2023/10/31 08:32:13;;;;;;;3.03;1.08;;;;;;;;;;5913177;28;20399;-71
2023/10/31 08:35:04;;;;;;;13.23;0.85;;;;;;;;;;5914603;28;20078;-70
2023/10/31 08:37:55;;;;;;;6.45;1.58;;;;;;;;;;5915397;28;20106;-70
2023/10/31 08:40:47;;;;;;;27.65;0.90;;;;;;;;;;5914708;28;20055;-70
2023/10/31 08:43:38;;;;;;;1.20;0.65;;;;;;;;;;5914957;28;20094;-70
2023/10/31 08:46:32;;;;;;;1.75;0.65;;;;;;;;;;5914332;28;20048;-71
2023/10/31 08:49:24;;;;;;;0.82;0.68;;;;;;;;;;5913499;28;20048;-71
2023/10/31 08:52:15;;;;;;;5.57;1.27;;;;;;;;;;5914667;28;20051;-70
2023/10/31 08:55:06;;;;;;;2.53;1.17;;;;;;;;;;5914521;28;20517;-70
2023/10/31 08:57:57;;;;;;;2.30;1.40;;;;;;;;;;5914794;28;20068;-70
2023/10/31 09:00:48;;;;;;;11.73;1.00;;;;;;;;;;5914106;28;20041;-70
2023/10/31 09:03:39;;;;;;;1.77;1.08;;;;;;;;;;5913490;28;20049;-71
2023/10/31 09:06:30;;;;;;;2.90;1.42;;;;;;;;;;5913512;28;20044;-70
2023/10/31 09:09:20;;;;;;;2.22;0.95;;;;;;;;;;5914053;28;20053;-70
2023/10/31 09:12:11;;;;;;;21.02;1.20;;;;;;;;;;5914102;28;20513;-71
2023/10/31 09:15:02;;;;;;;4.78;0.95;;;;;;;;;;5913630;28;20127;-71
2023/10/31 09:17:53;;;;;;;0.68;0.52;;;;;;;;;;5913620;28;20407;-71
2023/10/31 09:20:44;;;;;;;1.00;0.75;;;;;;;;;;5913554;28;20053;-70
2023/10/31 09:23:35;;;;;;;0.90;0.68;;;;;;;;;;5913423;28;20573;-70
2023/10/31 09:26:26;;;;;;;1.50;1.00;;;;;;;;;;5913489;28;20422;-69
2023/10/31 09:29:17;;;;;;;3.65;1.95;;;;;;;;;;5913117;28;20075;-71
2023/10/31 09:32:19;;;;;;;3.78;1.45;;;;;;;;;;5913838;28;20072;-71
2023/10/31 09:35:10;;;;;;;19.17;1.50;;;;;;;;;;5913838;28;20059;-69
2023/10/31 09:38:01;;;;;;;2.25;1.52;;;;;;;;;;5913926;28;20048;-71
2023/10/31 09:40:52;;;;;;;2.83;1.67;;;;;;;;;;5914110;28;20051;-71
2023/10/31 09:43:43;;;;;;;1.23;0.93;;;;;;;;;;5913325;28;20494;-71
2023/10/31 09:46:35;;;;;;;5.65;1.13;;;;;;;;;;5912347;28;20044;-70
2023/10/31 09:49:26;;;;;;;6.50;0.82;;;;;;;;;;5912129;28;20048;-70
2023/10/31 09:52:20;;;;;;;3.90;0.90;;;;;;;;;;5913766;28;20053;-70
2023/10/31 09:55:11;;;;;;;3.10;1.65;;;;;;;;;;5913372;28;20420;-70
2023/10/31 09:58:02;;;;;;;2.33;1.35;;;;;;;;;;5911907;28;20052;-71
2023/10/31 10:00:52;;;;;;;12.95;1.90;;;;;;;;;;5912796;28;20044;-71
2023/10/31 10:03:43;;;;;;;5.93;2.10;;;;;;;;;;5913373;28;20051;-69
2023/10/31 10:06:34;;;;;;;8.10;1.85;;;;;;;;;;5913429;28;20044;-70
2023/10/31 10:09:27;;;;;;;3.22;1.52;;;;;;;;;;5913014;28;20040;-71
2023/10/31 10:12:18;;;;;;;4.65;2.15;;;;;;;;;;5911604;28;20063;-71
2023/10/31 10:15:11;;;;;;;6.60;1.42;;;;;;;;;;5912278;28;20048;-71
2023/10/31 10:18:02;;;;;;;3.03;1.75;;;;;;;;;;5912661;28;20512;-70
2023/10/31 10:21:02;;;;;;;3.70;1.30;;;;;;;;;;5913117;28;20414;-71
2023/10/31 10:23:53;;;;;;;4.28;1.80;;;;;;;;;;5912400;28;20049;-70
2023/10/31 10:26:45;;;;;;;7.53;2.25;;;;;;;;;;5911716;28;20453;-70
2023/10/31 10:29:38;;;;;;;1.40;1.00;;;;;;;;;;5911279;28;20052;-70
2023/10/31 10:32:29;;;;;;;21.27;1.20;;;;;;;;;;5911457;28;20064;-70
2023/10/31 10:35:20;;;;;;;5.28;1.63;;;;;;;;;;5911407;28;20472;-71
2023/10/31 10:38:14;;;;;;;7.28;1.63;;;;;;;;;;5911267;28;20589;-71
2023/10/31 10:41:07;;;;;;;4.07;0.88;;;;;;;;;;5911495;28;20072;-70
2023/10/31 10:44:06;;;;;;;1.30;0.80;;;;;;;;;;5911403;28;20040;-70
2023/10/31 10:47:01;;;;;;;26.08;2.75;;;;;;;;;;5911395;28;20048;-70
2023/10/31 10:49:55;;;;;;;14.15;2.05;;;;;;;;;;5909929;28;20166;-70
2023/10/31 10:53:09;;;;;;;9.75;1.58;;;;;;;;;;5909993;28;20104;-71
2023/10/31 10:56:07;;;;;;;39.80;1.95;;;;;;;;;;5911304;28;20048;-71
2023/10/31 10:59:18;;;;;;;1.23;0.77;;;;;;;;;;5909836;28;20053;-70
2023/10/31 11:02:10;;;;;;;1.55;0.65;;;;;;;;;;5911047;28;20044;-70
2023/10/31 11:05:06;;;;;;;0.30;0.22;;;;;;;;;;5909517;28;20087;-70
2023/10/31 11:07:57;;;;;;;0.88;0.45;;;;;;;;;;5911456;28;20055;-72
2023/10/31 11:10:53;;;;;;;0.40;0.40;;;;;;;;;;5909725;28;20036;-70
2023/10/31 11:13:44;;;;;;;8.80;0.77;;;;;;;;;;5909457;28;20090;-71
2023/10/31 11:16:51;;;;;;;3.10;0.50;;;;;;;;;;5910775;28;20536;-70
2023/10/31 11:19:43;;;;;;;0.38;0.22;;;;;;;;;;5909228;28;20044;-70
2023/10/31 11:22:40;;;;;;;0.95;0.45;;;;;;;;;;5910527;28;20051;-71
2023/10/31 11:25:33;;;;;;;0.20;0.20;;;;;;;;;;5910531;28;20048;-71
2023/10/31 11:28:24;;;;;;;1.15;0.70;;;;;;;;;;5910227;28;20297;-70
2023/10/31 11:31:15;;;;;;;2.13;0.60;;;;;;;;;;5910457;28;20055;-70
2023/10/31 11:34:06;;;;;;;1.20;0.40;;;;;;;;;;5910336;28;20052;-70
2023/10/31 11:37:26;;;;;;;1.15;0.50;;;;;;;;;;5910913;28;20048;-69
2023/10/31 11:40:20;;;;;;;0.70;0.50;;;;;;;;;;5909942;28;20101;-70
2023/10/31 11:43:11;;;;;;;1.58;0.70;;;;;;;;;;5910238;28;20053;-70
2023/10/31 11:46:03;;;;;;;1.42;0.80;;;;;;;;;;5910399;28;20049;-70
2023/10/31 11:48:55;;;;;;;4.18;0.85;;;;;;;;;;5910692;28;20087;-70
2023/10/31 11:51:47;;;;;;;12.10;1.15;;;;;;;;;;5909954;28;20395;-70
2023/10/31 11:54:38;;;;;;;4.90;0.98;;;;;;;;;;5910246;28;20725;-70
2023/10/31 11:57:30;;;;;;;1.45;1.00;;;;;;;;;;5910164;28;20055;-71
2023/10/31 12:00:23;;;;;;;1.08;0.80;;;;;;;;;;5910197;28;20056;-70
2023/10/31 12:03:19;;;;;;;1.95;0.77;;;;;;;;;;5910002;28;20053;-70
2023/10/31 12:06:10;;;;;;;0.77;0.50;;;;;;;;;;5910171;28;20049;-70
2023/10/31 12:09:02;;;;;;;11.05;1.23;;;;;;;;;;5910303;28;20044;-71
2023/10/31 12:11:53;;;;;;;1.27;0.50;;;;;;;;;;5910595;28;20410;-70
2023/10/31 12:14:43;;;;;;;2.47;0.95;;;;;;;;;;5909741;28;20052;-70
2023/10/31 12:17:35;;;;;;;0.60;0.43;;;;;;;;;;5909872;28;20118;-70
2023/10/31 12:20:26;;;;;;;1.02;0.70;;;;;;;;;;5910072;28;20442;-70
2023/10/31 12:23:20;;;;;;;1.27;0.38;;;;;;;;;;5909823;28;20421;-70
2023/10/31 12:26:11;;;;;;;0.17;0.17;;;;;;;;;;5910071;28;20052;-70
2023/10/31 12:29:12;;;;;;;0.63;0.52;;;;;;;;;;5909618;28;20055;-71
2023/10/31 12:32:03;;;;;;;0.38;0.28;;;;;;;;;;5909949;28;20048;-69
2023/10/31 12:34:54;;;;;;;0.30;0.30;;;;;;;;;;5909779;28;20040;-70
2023/10/31 12:37:47;;;;;;;1.25;0.88;;;;;;;;;;5909648;28;20140;-70
2023/10/31 12:40:40;;;;;;;0.32;0.20;;;;;;;;;;5905280;28;20059;-70
2023/10/31 12:43:31;;;;;;;0.22;0.22;;;;;;;;;;5894329;28;20418;-69
2023/10/31 12:46:30;;;;;;;1.17;0.65;;;;;;;;;;5906251;28;20131;-70
2023/10/31 12:49:21;;;;;;;1.27;0.55;;;;;;;;;;5910106;28;20418;-69
2023/10/31 12:52:12;;;;;;;4.13;0.77;;;;;;;;;;5894680;28;20092;-70
2023/10/31 12:55:16;;;;;;;1.35;1.25;;;;;;;;;;5882971;28;20132;-70
2023/10/31 12:58:19;;;;;;;15.52;1.45;;;;;;;;;;5886201;28;20060;-71
2023/10/31 13:01:12;;;;;;;8.07;3.38;;;;;;;;;;5885220;28;20048;-70
2023/10/31 13:04:04;;;;;;;4.47;2.85;;;;;;;;;;5906203;28;20044;-70
2023/10/31 13:07:07;;;;;;;3.17;2.58;;;;;;;;;;5902999;28;20126;-69
2023/10/31 13:10:00;;;;;;;4.40;1.42;;;;;;;;;;5890925;28;20056;-70
2023/10/31 13:12:52;;;;;;;2.53;0.90;;;;;;;;;;5890130;28;20068;-70
2023/10/31 13:15:43;;;;;;;2.55;1.15;;;;;;;;;;5889064;28;20048;-70
2023/10/31 13:18:35;;;;;;;0.80;0.80;;;;;;;;;;5890667;28;20127;-70
2023/10/31 13:21:26;;;;;;;2.15;1.35;;;;;;;;;;5890447;28;20064;-70
2023/10/31 13:24:17;;;;;;;4.05;0.75;;;;;;;;;;5889356;28;20041;-70
2023/10/31 13:27:08;;;;;;;2.97;1.27;;;;;;;;;;5889662;28;20063;-70
2023/10/31 13:29:59;;;;;;;0.40;0.40;;;;;;;;;;5890198;28;20053;-69
2023/10/31 13:32:49;;;;;;;2.35;1.63;;;;;;;;;;5889552;28;20041;-69
2023/10/31 13:35:40;;;;;;;5.35;2.35;;;;;;;;;;5889489;28;20082;-69
2023/10/31 13:38:31;;;;;;;7.40;5.10;;;;;;;;;;5889566;28;20118;-69
2023/10/31 13:41:22;;;;;;;6.45;2.50;;;;;;;;;;5889378;28;20073;-69
2023/10/31 13:44:13;;;;;;;4.18;3.13;;;;;;;;;;5889056;28;20076;-70
2023/10/31 13:47:04;;;;;;;6.03;3.25;;;;;;;;;;5889224;28;20045;-69
2023/10/31 13:49:54;;;;;;;4.05;2.63;;;;;;;;;;5888922;28;20739;-69
2023/10/31 13:52:45;;;;;;;6.88;2.00;;;;;;;;;;5889048;28;20041;-70
2023/10/31 13:55:36;;;;;;;2.25;1.50;;;;;;;;;;5889088;28;20041;-70
2023/10/31 13:58:27;;;;;;;3.83;2.45;;;;;;;;;;5889023;28;20476;-69
2023/10/31 14:01:24;;;;;;;1.38;1.23;;;;;;;;;;5888965;28;20048;-70
2023/10/31 14:04:15;;;;;;;1.98;0.98;;;;;;;;;;5888760;28;20045;-69
2023/10/31 14:07:06;;;;;;;0.28;0.28;;;;;;;;;;5888782;28;20049;-69
2023/10/31 14:09:57;;;;;;;0.73;0.73;;;;;;;;;;5889189;28;20404;-69
2023/10/31 14:12:48;;;;;;;0.60;0.60;;;;;;;;;;5888463;28;20418;-70
2023/10/31 14:15:38;;;;;;;2.90;1.48;;;;;;;;;;5888160;28;20045;-69
2023/10/31 14:18:30;;;;;;;1.58;1.00;;;;;;;;;;5888469;28;20383;-68
2023/10/31 14:21:20;;;;;;;1.10;0.75;;;;;;;;;;5888375;28;20130;-68
2023/10/31 14:24:11;;;;;;;3.30;0.70;;;;;;;;;;5888344;28;20049;-68
2023/10/31 14:27:03;;;;;;;4.40;2.53;;;;;;;;;;5888415;28;20057;-69
2023/10/31 14:29:54;;;;;;;19.08;9.98;;;;;;;;;;5888409;28;20041;-69
2023/10/31 14:32:44;;;;;;;23.65;12.48;;;;;;;;;;5887993;28;20052;-69
2023/10/31 14:35:35;;;;;;;21.77;14.77;;;;;;;;;;5888168;28;20052;-69
2023/10/31 14:38:26;;;;;;;5.55;3.60;;;;;;;;;;5888077;28;20053;-70
2023/10/31 14:41:17;;;;;;;4.45;3.50;;;;;;;;;;5887881;28;20211;-70
2023/10/31 14:44:08;;;;;;;8.95;4.20;;;;;;;;;;5890796;28;20516;-71
2023/10/31 14:46:59;;;;;;;7.10;4.55;;;;;;;;;;5889893;28;20480;-71
2023/10/31 14:49:50;;;;;;;2.25;2.00;;;;;;;;;;5888214;28;20048;-71
2023/10/31 14:52:41;;;;;;;15.43;11.18;;;;;;;;;;5888159;28;20124;-71
2023/10/31 14:55:32;;;;;;;11.15;8.45;;;;;;;;;;5904623;28;20064;-71
2023/10/31 14:58:23;;;;;;;7.95;5.82;;;;;;;;;;5887427;28;20056;-71
2023/10/31 15:01:14;;;;;;;8.32;7.10;;;;;;;;;;5887925;28;20056;-72
2023/10/31 15:04:05;;;;;;;4.20;3.47;;;;;;;;;;5887891;28;20052;-72
2023/10/31 15:06:56;;;;;;;9.75;6.60;;;;;;;;;;5888134;28;20053;-73
2023/10/31 15:09:48;;;;;;;8.57;5.78;;;;;;;;;;5887631;28;20070;-73
2023/10/31 15:12:38;;;;;;;9.10;6.53;;;;;;;;;;5885608;28;20041;-74
2023/10/31 15:15:29;;;;;;;9.32;6.05;;;;;;;;;;5901397;28;20043;-74
2023/10/31 15:18:20;;;;;;;7.88;5.32;;;;;;;;;;5903895;28;20082;-74
2023/10/31 15:21:12;;;;;;;16.35;5.97;;;;;;;;;;5887782;28;20414;-75
2023/10/31 15:24:07;;;;;;;5.85;3.20;;;;;;;;;;5886242;28;20049;-74
2023/10/31 15:26:58;;;;;;;9.93;5.97;;;;;;;;;;5887099;28;20045;-75
2023/10/31 15:29:49;;;;;;;4.45;3.78;;;;;;;;;;5886874;28;20521;-74
2023/10/31 15:32:40;;;;;;;2.80;2.47;;;;;;;;;;5887375;28;20155;-73
2023/10/31 15:35:30;;;;;;;8.85;2.83;;;;;;;;;;5886903;28;20155;-74
2023/10/31 15:38:21;;;;;;;8.27;3.80;;;;;;;;;;5887126;28;20064;-74
2023/10/31 15:41:13;;;;;;;13.90;6.43;;;;;;;;;;5887166;28;20053;-74
2023/10/31 15:44:08;;;;;;;52.70;14.95;;;;;;;;;;5886404;28;20506;-74
2023/10/31 15:47:00;;;;;;;21.42;8.85;;;;;;;;;;5887428;28;20428;-74
2023/10/31 15:49:51;;;;;;;5.18;3.75;;;;;;;;;;5887228;28;20100;-74
2023/10/31 15:52:42;;;;;;;2.03;1.83;;;;;;;;;;5886933;28;20060;-75
2023/10/31 15:55:33;;;;;;;3.10;2.40;;;;;;;;;;5887224;28;20388;-75
2023/10/31 15:58:23;;;;;;;8.43;2.90;;;;;;;;;;5887084;28;20136;-74
2023/10/31 16:01:15;;;;;;;7.03;3.67;;;;;;;;;;5886842;28;20049;-75
2023/10/31 16:04:06;;;;;;;4.45;3.70;;;;;;;;;;5886389;28;20494;-73
2023/10/31 16:06:57;;;;;;;9.38;5.15;;;;;;;;;;5887105;28;20073;-74
2023/10/31 16:09:47;;;;;;;15.52;6.20;;;;;;;;;;5886801;28;20159;-75
2023/10/31 16:12:38;;;;;;;10.73;5.20;;;;;;;;;;5886009;28;20045;-74
2023/10/31 16:15:29;;;;;;;10.35;5.78;;;;;;;;;;5884797;28;20045;-73
2023/10/31 16:18:20;;;;;;;10.15;6.20;;;;;;;;;;5897907;28;20426;-74
2023/10/31 16:21:21;;;;;;;12.75;7.40;;;;;;;;;;5885415;28;20060;-73
2023/10/31 16:24:12;;;;;;;12.68;6.80;;;;;;;;;;5884694;28;20419;-73
2023/10/31 16:27:02;;;;;;;33.40;7.68;;;;;;;;;;5885209;28;20710;-72
2023/10/31 16:29:53;;;;;;;9.43;5.90;;;;;;;;;;5884769;28;20060;-72
2023/10/31 16:32:44;;;;;;;6.80;4.25;;;;;;;;;;5884013;28;20049;-73
2023/10/31 16:35:35;;;;;;;5.68;3.85;;;;;;;;;;5885398;28;20513;-72
2023/10/31 16:38:25;;;;;;;9.90;5.75;;;;;;;;;;5888365;28;20044;-72
2023/10/31 16:41:16;;;;;;;13.23;10.45;;;;;;;;;;5889122;28;20057;-72
2023/10/31 16:44:07;;;;;;;19.13;8.95;;;;;;;;;;5889107;28;20856;-72
2023/10/31 16:46:58;;;;;;;8.18;5.57;;;;;;;;;;5891458;28;20053;-72
2023/10/31 16:49:51;;;;;;;12.10;7.30;;;;;;;;;;5889309;28;20049;-72
2023/10/31 16:52:42;;;;;;;9.63;6.40;;;;;;;;;;5890556;28;20120;-72
2023/10/31 16:55:33;;;;;;;7.47;6.40;;;;;;;;;;5890631;28;20495;-72
2023/10/31 16:58:23;;;;;;;22.52;12.70;;;;;;;;;;5890028;28;20114;-72
2023/10/31 17:01:14;;;;;;;27.08;15.38;;;;;;;;;;5890203;28;20055;-72
2023/10/31 17:04:05;;;;;;;27.88;17.85;;;;;;;;;;5890436;28;20049;-72
2023/10/31 17:06:56;;;;;;;16.13;8.75;;;;;;;;;;5891225;28;20132;-72